Time;durP1;ratioP1;P1;durP2;ratioP2;P2;SDS_P1;SDS_P2;PMS_P1;PMS_P2;Temp;Humidity;BMP_temperature;BMP_pressure;BME280_temperature;BME280_humidity;BME280_pressure;Samples;Min_cycle;Max_cycle;Signal;HPM_P1;HPM_P2
2021/09/28 00:00:31;;;;;;;0.70;0.20;;;;;;;9.56;100.00;93731.69;2106984;28;20036;-81
2021/09/28 00:01:32;;;;;;;0.50;0.20;;;;;;;9.61;100.00;93733.94;2104408;28;20027;-81
2021/09/28 00:02:33;;;;;;;0.20;0.20;;;;;;;9.47;100.00;93734.81;2115454;28;20031;-81
2021/09/28 00:03:35;;;;;;;1.70;0.40;;;;;;;9.53;100.00;93725.25;2117931;27;20024;-80
2021/09/28 00:04:37;;;;;;;3.15;0.85;;;;;;;9.59;100.00;93738.91;2107077;28;20036;-80
2021/09/28 00:05:44;;;;;;;1.98;0.22;;;;;;;9.58;100.00;93740.06;2099577;28;20028;-81
2021/09/28 00:06:45;;;;;;;0.60;0.30;;;;;;;9.66;100.00;93730.09;2114406;28;20023;-80
2021/09/28 00:07:46;;;;;;;0.20;0.20;;;;;;;9.63;100.00;93738.91;2132153;27;20432;-80
2021/09/28 00:08:47;;;;;;;0.88;0.52;;;;;;;9.66;100.00;93725.53;2115404;28;20023;-83
2021/09/28 00:09:48;;;;;;;0.70;0.50;;;;;;;9.71;100.00;93729.69;2107158;27;20103;-81
2021/09/28 00:10:48;;;;;;;1.35;0.30;;;;;;;9.70;100.00;93723.59;2119178;27;20445;-81
2021/09/28 00:11:52;;;;;;;1.98;0.30;;;;;;;9.77;100.00;93733.44;2123864;27;20115;-81
2021/09/28 00:12:53;;;;;;;1.48;0.20;;;;;;;9.71;100.00;93735.03;2124416;27;20356;-84
2021/09/28 00:13:55;;;;;;;0.47;0.30;;;;;;;9.80;100.00;93740.66;2106838;28;20027;-81
2021/09/28 00:14:56;;;;;;;0.75;0.30;;;;;;;9.83;100.00;93734.50;2098716;28;20020;-82
2021/09/28 00:15:57;;;;;;;2.55;0.40;;;;;;;9.56;100.00;93737.78;2106895;28;20053;-81
2021/09/28 00:16:58;;;;;;;0.47;0.40;;;;;;;9.48;100.00;93744.34;2107772;28;20045;-79
2021/09/28 00:17:59;;;;;;;0.40;0.30;;;;;;;9.41;100.00;93751.66;2122937;27;20069;-82
2021/09/28 00:19:00;;;;;;;4.28;0.40;;;;;;;9.37;100.00;93743.66;2125704;27;20456;-81
2021/09/28 00:20:01;;;;;;;1.85;0.60;;;;;;;9.41;100.00;93744.41;2123809;27;20027;-86
2021/09/28 00:21:02;;;;;;;0.98;0.35;;;;;;;9.30;100.00;93747.13;2110137;28;20035;-81
2021/09/28 00:22:03;;;;;;;0.47;0.30;;;;;;;9.36;100.00;93752.06;2107140;28;20442;-82
2021/09/28 00:23:12;;;;;;;6.72;0.47;;;;;;;9.41;100.00;93747.06;2123887;27;20026;-82
2021/09/28 00:24:14;;;;;;;0.60;0.30;;;;;;;9.41;100.00;93752.41;2123862;27;20027;-87
2021/09/28 00:25:15;;;;;;;0.90;0.28;;;;;;;9.28;100.00;93743.34;2106829;28;20062;-79
2021/09/28 00:26:16;;;;;;;0.57;0.30;;;;;;;9.33;100.00;93745.59;2115601;27;20023;-79
2021/09/28 00:27:18;;;;;;;0.32;0.32;;;;;;;9.34;100.00;93749.78;2123643;27;20428;-82
2021/09/28 00:28:19;;;;;;;1.48;0.38;;;;;;;9.56;100.00;93742.38;2111263;28;20046;-83
2021/09/28 00:29:20;;;;;;;0.45;0.28;;;;;;;9.55;100.00;93746.19;2106799;28;20047;-80
2021/09/28 00:30:21;;;;;;;2.33;0.60;;;;;;;9.38;100.00;93753.19;2106786;28;20020;-79
2021/09/28 00:31:21;;;;;;;0.68;0.40;;;;;;;9.32;100.00;93752.09;2115382;28;20027;-81
2021/09/28 00:32:22;;;;;;;0.82;0.38;;;;;;;9.43;100.00;93752.75;2128735;27;20019;-79
2021/09/28 00:33:25;;;;;;;0.85;0.40;;;;;;;9.44;100.00;93746.28;2128363;27;20015;-81
2021/09/28 00:34:26;;;;;;;1.20;0.40;;;;;;;9.24;100.00;93748.69;2111472;28;20110;-81
2021/09/28 00:35:27;;;;;;;5.47;0.50;;;;;;;9.28;100.00;93744.09;2115244;27;20499;-79
2021/09/28 00:36:28;;;;;;;5.10;0.90;;;;;;;9.37;100.00;93751.66;2123774;27;20114;-81
2021/09/28 00:37:29;;;;;;;0.90;0.50;;;;;;;9.29;100.00;93744.84;2115103;28;20106;-80
2021/09/28 00:38:30;;;;;;;1.00;0.50;;;;;;;9.20;100.00;93749.88;2123855;27;20015;-80
2021/09/28 00:39:31;;;;;;;1.92;0.50;;;;;;;9.24;100.00;93742.59;2123822;27;20023;-81
2021/09/28 00:40:32;;;;;;;3.33;0.70;;;;;;;9.12;100.00;93732.38;2109520;28;20477;-79
2021/09/28 00:41:33;;;;;;;0.63;0.50;;;;;;;9.15;100.00;93739.63;2115305;28;20137;-82
2021/09/28 00:42:36;;;;;;;3.00;0.45;;;;;;;9.22;100.00;93740.34;2106653;28;20069;-79
2021/09/28 00:43:51;;;;;;;2.15;0.57;;;;;;;9.22;100.00;93729.66;2104755;28;20024;-82
2021/09/28 00:44:52;;;;;;;2.40;0.52;;;;;;;9.25;100.00;93736.13;2118673;27;20027;-80
2021/09/28 00:45:53;;;;;;;0.70;0.50;;;;;;;9.25;100.00;93734.19;2115174;28;20685;-80
2021/09/28 00:46:54;;;;;;;3.30;0.60;;;;;;;9.29;100.00;93736.84;2115108;28;20121;-81
2021/09/28 00:47:55;;;;;;;1.08;0.65;;;;;;;9.29;100.00;93737.59;2105909;28;20495;-81
2021/09/28 00:48:56;;;;;;;2.38;0.50;;;;;;;9.38;100.00;93737.16;2098844;28;20052;-80
2021/09/28 00:49:57;;;;;;;1.65;0.55;;;;;;;9.27;100.00;93741.84;2115037;28;20023;-80
2021/09/28 00:50:58;;;;;;;3.08;0.80;;;;;;;9.28;100.00;93743.34;2112603;28;20058;-82
2021/09/28 00:52:00;;;;;;;2.22;0.70;;;;;;;9.24;100.00;93738.03;2098190;28;20025;-81
2021/09/28 00:53:03;;;;;;;1.63;0.55;;;;;;;9.38;100.00;93745.16;2098579;28;20103;-80
2021/09/28 00:54:04;;;;;;;3.05;0.70;;;;;;;9.45;100.00;93745.13;2114952;28;20100;-80
2021/09/28 00:55:06;;;;;;;1.45;0.52;;;;;;;9.31;100.00;93748.66;2106583;28;20020;-81
2021/09/28 00:56:09;;;;;;;3.63;0.75;;;;;;;9.36;100.00;93752.06;2106796;28;20123;-80
2021/09/28 00:57:11;;;;;;;0.77;0.60;;;;;;;9.41;100.00;93756.97;2109458;28;20043;-80
2021/09/28 00:58:12;;;;;;;2.33;0.60;;;;;;;9.43;100.00;93755.41;2106922;28;20016;-82
2021/09/28 00:59:14;;;;;;;1.83;0.50;;;;;;;9.66;100.00;93757.56;2107244;28;20035;-82
2021/09/28 01:00:15;;;;;;;5.68;0.80;;;;;;;9.66;100.00;93764.78;2119578;27;20028;-80
2021/09/28 01:01:17;;;;;;;0.68;0.68;;;;;;;9.52;100.00;93771.75;2106886;28;20353;-80
2021/09/28 01:02:18;;;;;;;1.10;0.70;;;;;;;9.49;100.00;93769.88;2106798;28;20106;-80
2021/09/28 01:03:19;;;;;;;2.38;0.75;;;;;;;9.57;100.00;93759.91;2118775;27;20391;-81
2021/09/28 01:04:22;;;;;;;2.45;0.60;;;;;;;9.49;100.00;93761.88;2115359;27;20027;-81
2021/09/28 01:05:23;;;;;;;2.17;0.52;;;;;;;9.59;100.00;93755.69;2123963;27;20167;-79
2021/09/28 01:06:25;;;;;;;4.20;0.90;;;;;;;9.47;100.00;93753.50;2123632;27;20023;-81
2021/09/28 01:07:26;;;;;;;2.05;0.60;;;;;;;9.61;100.00;93760.63;2123786;27;20503;-81
2021/09/28 01:08:27;;;;;;;3.17;0.70;;;;;;;9.49;100.00;93755.78;2123464;27;20700;-82
2021/09/28 01:09:30;;;;;;;3.42;0.65;;;;;;;9.57;100.00;93755.34;2123680;27;20367;-80
2021/09/28 01:10:31;;;;;;;3.08;0.80;;;;;;;9.51;100.00;93754.22;2123861;27;20023;-80
2021/09/28 01:11:32;;;;;;;2.60;0.63;;;;;;;9.53;100.00;93765.28;2117387;27;20047;-79
2021/09/28 01:12:33;;;;;;;3.78;0.80;;;;;;;9.61;100.00;93757.97;2114895;28;20433;-82
2021/09/28 01:13:34;;;;;;;1.45;0.57;;;;;;;9.58;100.00;93764.09;2115146;28;20076;-80
2021/09/28 01:14:36;;;;;;;7.35;0.85;;;;;;;9.52;100.00;93766.41;2115637;28;20464;-80
2021/09/28 01:15:37;;;;;;;3.45;0.80;;;;;;;9.53;100.00;93767.94;2106467;28;20066;-82
2021/09/28 01:16:38;;;;;;;3.10;0.70;;;;;;;9.45;100.00;93768.38;2098221;28;20020;-81
2021/09/28 01:17:41;;;;;;;6.32;1.15;;;;;;;9.44;100.00;93780.19;2106213;28;20115;-79
2021/09/28 01:18:42;;;;;;;3.47;1.00;;;;;;;9.52;100.00;93768.31;2106372;28;20023;-81
2021/09/28 01:19:44;;;;;;;2.33;0.65;;;;;;;9.50;100.00;93776.72;2106373;28;20043;-80
2021/09/28 01:20:45;;;;;;;2.55;0.90;;;;;;;9.51;100.00;93772.16;2110826;28;20020;-79
2021/09/28 01:21:47;;;;;;;4.05;0.80;;;;;;;9.46;100.00;93773.31;2123367;27;20102;-80
2021/09/28 01:22:48;;;;;;;4.07;0.80;;;;;;;9.45;100.00;93774.47;2106442;28;20089;-82
2021/09/28 01:23:49;;;;;;;2.88;0.73;;;;;;;9.46;100.00;93776.00;2114882;28;20096;-81
2021/09/28 01:24:50;;;;;;;3.22;0.68;;;;;;;9.47;100.00;93771.41;2123369;27;20044;-79
2021/09/28 01:25:51;;;;;;;3.10;1.02;;;;;;;9.48;100.00;93779.03;2123175;27;20031;-81
2021/09/28 01:26:52;;;;;;;2.55;0.80;;;;;;;9.47;100.00;93774.84;2119105;27;20031;-81
2021/09/28 01:27:53;;;;;;;5.28;0.93;;;;;;;9.47;100.00;93774.84;2106521;28;20109;-80
2021/09/28 01:28:56;;;;;;;2.42;0.88;;;;;;;9.49;100.00;93774.47;2098219;28;20095;-80
2021/09/28 01:29:57;;;;;;;4.22;0.90;;;;;;;9.46;100.00;93781.31;2106575;28;20028;-81
2021/09/28 01:30:59;;;;;;;3.60;0.80;;;;;;;9.49;100.00;93771.78;2114816;28;20047;-82
2021/09/28 01:32:00;;;;;;;2.53;0.70;;;;;;;9.47;100.00;93769.50;2114985;28;20487;-81
2021/09/28 01:33:01;;;;;;;2.13;0.85;;;;;;;9.46;100.00;93773.31;2115376;28;20030;-79
2021/09/28 01:34:02;;;;;;;3.92;0.85;;;;;;;9.41;100.00;93770.31;2114770;28;20031;-79
2021/09/28 01:35:05;;;;;;;9.73;1.20;;;;;;;9.43;100.00;93773.34;2114769;28;20067;-82
2021/09/28 01:36:06;;;;;;;3.78;0.93;;;;;;;9.49;100.00;93769.88;2106489;28;20036;-81
2021/09/28 01:37:07;;;;;;;3.40;0.90;;;;;;;9.51;100.00;93762.22;2108193;28;20027;-80
2021/09/28 01:38:08;;;;;;;1.50;0.70;;;;;;;9.52;100.00;93762.97;2106278;28;20023;-80
2021/09/28 01:39:09;;;;;;;4.85;0.90;;;;;;;9.55;100.00;93767.53;2123303;27;20026;-80
2021/09/28 01:40:11;;;;;;;4.13;0.93;;;;;;;9.44;100.00;93772.97;2114730;28;20020;-81
2021/09/28 01:41:12;;;;;;;3.38;0.90;;;;;;;9.46;100.00;93773.31;2099612;28;20869;-83
2021/09/28 01:42:13;;;;;;;2.20;0.80;;;;;;;9.43;100.00;93770.69;2106557;28;20030;-80
2021/09/28 01:43:15;;;;;;;2.90;0.80;;;;;;;9.40;100.00;93777.56;2114605;28;20027;-82
2021/09/28 01:44:17;;;;;;;3.17;1.00;;;;;;;9.47;100.00;93769.50;2114718;28;20019;-80
2021/09/28 01:45:18;;;;;;;2.65;0.90;;;;;;;9.44;100.00;93764.19;2106194;28;20171;-82
2021/09/28 01:46:19;;;;;;;5.35;1.20;;;;;;;9.42;100.00;93763.81;2109740;28;20023;-82
2021/09/28 01:47:20;;;;;;;2.20;1.00;;;;;;;9.44;100.00;93764.19;2123319;27;20105;-81
2021/09/28 01:48:25;;;;;;;3.50;1.00;;;;;;;9.49;100.00;93764.53;2119183;27;20019;-80
2021/09/28 01:49:26;;;;;;;2.05;0.85;;;;;;;9.47;100.00;93758.81;2102841;28;20416;-81
2021/09/28 01:50:27;;;;;;;4.95;1.10;;;;;;;9.37;100.00;93766.91;2105698;28;20024;-81
2021/09/28 01:51:28;;;;;;;3.65;1.17;;;;;;;9.42;100.00;93771.84;2114669;28;20510;-80
2021/09/28 01:52:32;;;;;;;1.75;1.10;;;;;;;9.53;100.00;93759.19;2114609;28;20130;-80
2021/09/28 01:53:33;;;;;;;4.13;1.20;;;;;;;9.47;100.00;93760.75;2098690;28;20025;-80
2021/09/28 01:54:34;;;;;;;4.00;1.23;;;;;;;9.54;100.00;93763.38;2114631;28;20024;-80
2021/09/28 01:55:35;;;;;;;1.38;0.98;;;;;;;9.59;100.00;93762.94;2121104;27;20023;-80
2021/09/28 01:56:37;;;;;;;2.13;0.95;;;;;;;9.57;100.00;93760.69;2117831;27;20054;-79
2021/09/28 01:57:37;;;;;;;2.28;1.20;;;;;;;9.61;100.00;93773.22;2115325;28;20376;-79
2021/09/28 01:58:38;;;;;;;2.42;1.05;;;;;;;9.58;100.00;93775.53;2112000;28;20023;-81
2021/09/28 01:59:39;;;;;;;6.35;1.00;;;;;;;9.58;100.00;93772.09;2100000;28;20020;-80
2021/09/28 02:00:41;;;;;;;5.20;1.45;;;;;;;9.55;100.00;93768.31;2112644;28;20063;-82
2021/09/28 02:01:42;;;;;;;4.22;1.10;;;;;;;9.54;100.00;93768.72;2116311;27;20015;-80
2021/09/28 02:02:43;;;;;;;7.35;1.25;;;;;;;9.54;100.00;93774.78;2114475;28;20353;-80
2021/09/28 02:03:44;;;;;;;4.65;1.30;;;;;;;9.52;100.00;93774.41;2106314;28;20024;-80
2021/09/28 02:04:45;;;;;;;2.05;1.05;;;;;;;9.47;100.00;93776.75;2114714;28;20122;-81
2021/09/28 02:07:37;;;;;;;;;;;;;;;9.60;100.00;93769.78;2141759;27;20193;-79
2021/09/28 02:08:38;;;;;;;2.47;1.10;;;;;;;9.58;100.00;93767.53;2132864;27;19987;-82
2021/09/28 02:09:39;;;;;;;3.83;1.20;;;;;;;9.58;100.00;93780.13;2121879;28;20542;-81
2021/09/28 02:10:40;;;;;;;7.63;2.38;;;;;;;9.55;100.00;93784.31;2113533;28;20024;-81
2021/09/28 02:11:41;;;;;;;1.17;0.90;;;;;;;9.58;100.00;93775.53;2113537;27;20031;-81
2021/09/28 02:12:42;;;;;;;3.25;1.50;;;;;;;9.63;100.00;93779.69;2120115;28;20404;-80
2021/09/28 02:13:43;;;;;;;1.80;1.10;;;;;;;9.78;100.00;93773.06;2106543;28;20024;-81
2021/09/28 02:14:44;;;;;;;10.02;1.55;;;;;;;9.71;100.00;93772.41;2127672;27;20023;-81
2021/09/28 02:15:45;;;;;;;3.05;1.17;;;;;;;9.68;100.00;93773.16;2139155;27;20094;-83
2021/09/28 02:16:46;;;;;;;4.90;1.23;;;;;;;9.67;100.00;93774.34;2130469;27;20019;-82
2021/09/28 02:17:47;;;;;;;5.60;1.23;;;;;;;9.60;100.00;93772.47;2130457;27;20019;-82
2021/09/28 02:18:48;;;;;;;3.90;1.10;;;;;;;9.68;100.00;93773.94;2128678;27;20524;-81
2021/09/28 02:19:49;;;;;;;1.02;0.93;;;;;;;9.70;100.00;93774.31;2130438;27;20076;-83
2021/09/28 02:20:50;;;;;;;3.08;1.00;;;;;;;9.64;100.00;93777.78;2120351;27;20019;-79
2021/09/28 02:21:51;;;;;;;2.70;1.25;;;;;;;9.65;100.00;93776.63;2104940;28;20024;-81
2021/09/28 02:22:52;;;;;;;3.22;1.17;;;;;;;9.66;100.00;93770.91;2104944;28;20050;-81
2021/09/28 02:23:53;;;;;;;2.05;1.08;;;;;;;9.67;100.00;93775.09;2121700;27;20110;-80
2021/09/28 02:24:53;;;;;;;4.82;1.30;;;;;;;9.60;100.00;93775.13;2104897;28;20020;-81
2021/09/28 02:25:54;;;;;;;2.03;1.05;;;;;;;9.55;100.00;93768.31;2113438;28;20550;-80
2021/09/28 02:26:55;;;;;;;3.63;1.50;;;;;;;9.49;100.00;93774.47;2121731;28;20028;-80
2021/09/28 02:27:56;;;;;;;2.20;1.42;;;;;;;9.54;100.00;93769.47;2113987;27;20384;-80
2021/09/28 02:28:57;;;;;;;4.43;1.20;;;;;;;9.50;100.00;93767.97;2129938;27;20050;-80
2021/09/28 02:29:58;;;;;;;4.25;1.20;;;;;;;9.51;100.00;93778.25;2130965;27;20102;-82
2021/09/28 02:30:59;;;;;;;6.20;1.60;;;;;;;9.59;100.00;93773.63;2138140;27;20022;-82
2021/09/28 02:32:00;;;;;;;1.83;1.10;;;;;;;9.58;100.00;93777.44;2121827;27;20024;-82
2021/09/28 02:33:01;;;;;;;3.15;1.20;;;;;;;9.60;100.00;93780.47;2131388;27;20047;-81
2021/09/28 02:34:06;;;;;;;4.00;1.40;;;;;;;9.63;100.00;93766.34;2138370;27;20061;-80
2021/09/28 02:35:07;;;;;;;1.40;1.00;;;;;;;9.62;100.00;93780.09;2132101;27;20019;-81
2021/09/28 02:36:08;;;;;;;3.55;1.15;;;;;;;9.68;100.00;93776.59;2138914;27;20050;-82
2021/09/28 02:37:11;;;;;;;8.75;1.50;;;;;;;9.59;100.00;93773.63;2136680;27;20422;-81
2021/09/28 02:38:13;;;;;;;3.08;1.10;;;;;;;9.58;100.00;93772.88;2132789;27;20582;-82
2021/09/28 02:39:13;;;;;;;3.55;1.30;;;;;;;9.55;100.00;93767.53;2136886;27;20019;-80
2021/09/28 02:40:15;;;;;;;5.68;1.20;;;;;;;9.54;100.00;93772.13;2132933;27;20084;-80
2021/09/28 02:41:16;;;;;;;4.70;1.70;;;;;;;9.61;100.00;93770.53;2129937;27;20026;-80
2021/09/28 02:42:17;;;;;;;2.97;1.20;;;;;;;9.53;100.00;93778.63;2130324;27;20112;-81
2021/09/28 02:43:17;;;;;;;3.20;1.50;;;;;;;9.50;100.00;93778.66;2118454;27;20786;-82
2021/09/28 02:44:18;;;;;;;1.70;1.10;;;;;;;9.45;100.00;93777.16;2121624;27;20030;-81
2021/09/28 02:45:20;;;;;;;3.03;1.40;;;;;;;9.47;100.00;93777.50;2130293;27;20532;-82
2021/09/28 02:46:21;;;;;;;6.25;1.30;;;;;;;9.54;100.00;93772.13;2121632;28;20027;-83
2021/09/28 02:47:26;;;;;;;8.18;1.40;;;;;;;9.65;100.00;93787.28;2104827;28;20021;-80
2021/09/28 02:48:27;;;;;;;3.38;1.23;;;;;;;9.57;100.00;93782.03;2114342;27;20020;-81
2021/09/28 02:49:27;;;;;;;3.58;1.27;;;;;;;9.66;100.00;93778.13;2126143;27;20019;-81
2021/09/28 02:50:33;;;;;;;2.25;1.30;;;;;;;9.57;100.00;93771.34;2116167;28;20480;-81
2021/09/28 02:51:34;;;;;;;3.42;1.58;;;;;;;9.59;100.00;93774.38;2105925;28;20575;-83
2021/09/28 02:52:34;;;;;;;5.30;1.13;;;;;;;9.59;100.00;93776.28;2104818;28;20024;-81
2021/09/28 02:53:35;;;;;;;4.55;1.98;;;;;;;9.52;100.00;93776.31;2113209;28;20114;-80
2021/09/28 02:54:37;;;;;;;2.30;1.20;;;;;;;9.51;100.00;93778.25;2122757;27;20046;-82
2021/09/28 02:55:38;;;;;;;4.15;1.35;;;;;;;9.54;100.00;93772.13;2130156;27;20413;-81
2021/09/28 02:56:39;;;;;;;6.78;1.42;;;;;;;9.59;100.00;93765.63;2122221;27;20046;-81
2021/09/28 02:57:40;;;;;;;5.50;1.27;;;;;;;9.48;100.00;93760.38;2127853;27;20022;-82
2021/09/28 02:58:41;;;;;;;6.43;1.30;;;;;;;9.46;100.00;93768.00;2110773;28;20020;-82
2021/09/28 02:59:42;;;;;;;2.45;1.42;;;;;;;9.56;100.00;93761.81;2109394;27;20106;-83
2021/09/28 03:00:43;;;;;;;2.65;1.30;;;;;;;9.46;100.00;93761.91;2109037;28;20024;-81
2021/09/28 03:01:45;;;;;;;2.30;1.35;;;;;;;9.46;100.00;93759.97;2104113;28;20020;-82
2021/09/28 03:02:46;;;;;;;3.72;1.50;;;;;;;9.50;100.00;93762.63;2111601;28;20153;-82
2021/09/28 03:03:48;;;;;;;4.18;1.30;;;;;;;9.48;100.00;93757.69;2113335;27;20472;-80
2021/09/28 03:04:50;;;;;;;4.53;1.17;;;;;;;9.44;100.00;93758.84;2113438;28;20045;-82
2021/09/28 03:05:51;;;;;;;4.35;1.40;;;;;;;9.40;100.00;93758.88;2121358;27;20496;-82
2021/09/28 03:06:52;;;;;;;6.90;1.20;;;;;;;9.34;100.00;93755.09;2124760;27;20111;-83
2021/09/28 03:07:53;;;;;;;2.88;1.10;;;;;;;9.36;100.00;93755.50;2121248;28;20492;-82
2021/09/28 03:08:54;;;;;;;3.78;1.63;;;;;;;9.27;100.00;93758.59;2121583;27;20019;-81
2021/09/28 03:09:55;;;;;;;2.97;1.13;;;;;;;9.22;100.00;93766.22;2121478;28;20020;-80
2021/09/28 03:10:57;;;;;;;7.93;1.52;;;;;;;9.28;100.00;93762.00;2113133;27;20026;-80
2021/09/28 03:11:58;;;;;;;8.13;1.52;;;;;;;9.28;100.00;93760.09;2121309;27;20036;-80
2021/09/28 03:12:59;;;;;;;6.20;1.25;;;;;;;9.26;100.00;93761.63;2121549;27;20064;-80
2021/09/28 03:14:00;;;;;;;5.78;1.42;;;;;;;9.26;100.00;93758.97;2121434;28;20039;-80
2021/09/28 03:15:01;;;;;;;3.60;1.15;;;;;;;9.21;100.00;93757.47;2129049;27;20072;-82
2021/09/28 03:16:02;;;;;;;3.30;1.40;;;;;;;9.23;100.00;93762.44;2121539;28;20068;-81
2021/09/28 03:17:03;;;;;;;2.75;1.55;;;;;;;9.23;100.00;93763.19;2121506;28;20019;-82
2021/09/28 03:18:04;;;;;;;4.80;1.30;;;;;;;9.25;100.00;93766.22;2126836;27;20027;-81
2021/09/28 03:19:05;;;;;;;4.88;1.17;;;;;;;9.22;100.00;93771.56;2123819;27;20054;-82
2021/09/28 03:20:07;;;;;;;6.18;1.40;;;;;;;9.24;100.00;93771.94;2124764;27;20030;-81
2021/09/28 03:21:08;;;;;;;2.72;1.27;;;;;;;9.27;100.00;93773.84;2112488;27;20016;-82
2021/09/28 03:22:09;;;;;;;4.30;1.00;;;;;;;9.35;100.00;93769.97;2115672;28;20047;-80
2021/09/28 03:23:10;;;;;;;5.13;1.60;;;;;;;9.26;100.00;93767.75;2115825;28;20051;-81
2021/09/28 03:24:11;;;;;;;3.58;1.30;;;;;;;9.32;100.00;93771.50;2115803;28;20169;-80
2021/09/28 03:25:11;;;;;;;7.35;1.65;;;;;;;9.30;100.00;93768.47;2113375;28;20051;-81
2021/09/28 03:26:12;;;;;;;3.42;1.23;;;;;;;9.33;100.00;93762.34;2109628;28;20020;-80
2021/09/28 03:27:13;;;;;;;2.13;1.40;;;;;;;9.19;100.00;93762.44;2107107;28;20020;-82
2021/09/28 03:28:16;;;;;;;3.08;1.75;;;;;;;9.19;100.00;93764.38;2124257;27;20106;-80
2021/09/28 03:29:17;;;;;;;3.92;1.40;;;;;;;9.30;100.00;93765.78;2121097;27;20031;-80
2021/09/28 03:30:18;;;;;;;2.92;1.00;;;;;;;9.36;100.00;93766.16;2115786;28;20043;-80
2021/09/28 03:31:19;;;;;;;3.00;1.55;;;;;;;9.25;100.00;93762.78;2113756;28;20021;-82
2021/09/28 03:32:21;;;;;;;3.53;1.33;;;;;;;9.27;100.00;93766.59;2118829;27;20375;-81
2021/09/28 03:33:22;;;;;;;2.83;1.38;;;;;;;9.24;100.00;93763.94;2115491;28;20069;-82
2021/09/28 03:34:23;;;;;;;6.70;1.35;;;;;;;9.27;100.00;93771.19;2115691;28;20019;-81
2021/09/28 03:35:24;;;;;;;3.00;1.20;;;;;;;9.27;100.00;93766.59;2124262;27;20106;-82
2021/09/28 03:36:25;;;;;;;2.55;1.20;;;;;;;9.24;100.00;93772.69;2115649;28;20020;-81
2021/09/28 03:37:26;;;;;;;2.75;1.10;;;;;;;9.39;100.00;93764.59;2107268;28;20810;-82
2021/09/28 03:38:27;;;;;;;2.92;1.55;;;;;;;9.27;100.00;93769.25;2107130;28;20028;-82
2021/09/28 03:39:28;;;;;;;5.93;1.30;;;;;;;9.34;100.00;93769.19;2107204;28;20020;-83
2021/09/28 03:40:30;;;;;;;1.70;1.17;;;;;;;9.22;100.00;93771.56;2107291;28;20047;-80
2021/09/28 03:41:31;;;;;;;3.60;1.13;;;;;;;9.27;100.00;93766.59;2108872;28;20607;-82
2021/09/28 03:42:32;;;;;;;4.95;1.40;;;;;;;9.25;100.00;93766.22;2115538;28;20028;-80
2021/09/28 03:43:33;;;;;;;5.22;1.15;;;;;;;9.28;100.00;93759.34;2115595;28;20051;-80
2021/09/28 03:44:34;;;;;;;3.47;1.17;;;;;;;9.28;100.00;93759.34;2115634;28;20080;-80
2021/09/28 03:45:36;;;;;;;3.88;1.20;;;;;;;9.30;100.00;93754.38;2098784;28;20016;-82
2021/09/28 03:46:37;;;;;;;4.50;1.25;;;;;;;9.32;100.00;93760.09;2099127;28;20037;-81
2021/09/28 03:47:38;;;;;;;5.40;1.05;;;;;;;9.27;100.00;93755.94;2106958;28;20016;-79
2021/09/28 03:48:39;;;;;;;5.47;1.15;;;;;;;9.29;100.00;93761.63;2107084;28;20048;-82
2021/09/28 03:49:40;;;;;;;1.73;1.20;;;;;;;9.33;100.00;93758.94;2115609;28;20047;-81
2021/09/28 03:50:41;;;;;;;3.88;1.20;;;;;;;9.29;100.00;93758.94;2115518;28;20031;-81
2021/09/28 03:51:42;;;;;;;4.07;1.17;;;;;;;9.22;100.00;93766.22;2107054;28;20898;-82
2021/09/28 03:52:43;;;;;;;3.72;1.40;;;;;;;9.22;100.00;93760.91;2106884;28;20020;-81
2021/09/28 03:53:44;;;;;;;4.05;1.25;;;;;;;9.26;100.00;93758.97;2115557;28;20019;-81
2021/09/28 03:54:45;;;;;;;4.10;1.13;;;;;;;9.21;100.00;93768.13;2115279;28;20031;-81
2021/09/28 03:55:46;;;;;;;2.95;1.50;;;;;;;9.17;100.00;93763.97;2098660;28;20431;-81
2021/09/28 03:56:47;;;;;;;3.55;1.25;;;;;;;9.15;100.00;93763.63;2090423;28;20025;-81
2021/09/28 03:57:49;;;;;;;3.30;1.20;;;;;;;9.20;100.00;93768.53;2098623;28;20107;-80
2021/09/28 03:58:50;;;;;;;3.78;1.38;;;;;;;9.16;100.00;93762.47;2098536;28;20043;-82
2021/09/28 03:59:51;;;;;;;4.03;1.35;;;;;;;9.23;100.00;93762.44;2098882;28;20521;-80
2021/09/28 04:00:52;;;;;;;4.22;1.02;;;;;;;9.29;100.00;93768.88;2098592;28;20029;-82
2021/09/28 04:01:53;;;;;;;2.72;1.23;;;;;;;9.11;100.00;93771.63;2098683;28;20040;-80
2021/09/28 04:02:54;;;;;;;3.30;1.20;;;;;;;9.14;100.00;93775.44;2098417;28;20036;-83
2021/09/28 04:03:55;;;;;;;3.58;1.80;;;;;;;9.03;100.00;93775.50;2090362;28;20044;-79
2021/09/28 04:04:56;;;;;;;3.42;1.20;;;;;;;9.01;100.00;93772.47;2090310;28;20107;-81
2021/09/28 04:05:57;;;;;;;4.30;1.27;;;;;;;8.98;100.00;93773.22;2090214;28;20366;-82
2021/09/28 04:07:01;;;;;;;3.13;1.40;;;;;;;9.13;100.00;93771.25;2108336;27;20527;-83
2021/09/28 04:08:03;;;;;;;2.58;0.98;;;;;;;9.10;100.00;93772.78;2123824;27;20030;-82
2021/09/28 04:09:04;;;;;;;3.95;1.15;;;;;;;9.13;100.00;93773.91;2115417;28;20015;-83
2021/09/28 04:10:08;;;;;;;3.95;1.20;;;;;;;9.14;100.00;93770.13;2115286;28;20075;-81
2021/09/28 04:11:09;;;;;;;6.57;1.23;;;;;;;9.15;100.00;93779.63;2115205;28;20057;-82
2021/09/28 04:12:10;;;;;;;4.20;1.30;;;;;;;9.19;100.00;93778.44;2115467;28;20088;-83
2021/09/28 04:13:11;;;;;;;1.63;1.33;;;;;;;9.09;100.00;93773.94;2124407;27;20488;-81
2021/09/28 04:14:15;;;;;;;2.17;1.08;;;;;;;9.14;100.00;93781.53;2115291;28;20022;-80
2021/09/28 04:15:19;;;;;;;4.25;1.63;;;;;;;9.13;100.00;93774.69;2115638;27;20053;-81
2021/09/28 04:16:21;;;;;;;7.63;1.80;;;;;;;9.17;100.00;93779.97;2123937;27;20071;-80
2021/09/28 04:17:22;;;;;;;3.22;1.30;;;;;;;9.12;100.00;93781.16;2123713;27;20072;-82
2021/09/28 04:18:22;;;;;;;4.70;1.10;;;;;;;9.06;100.00;93785.38;2123726;27;20454;-80
2021/09/28 04:19:24;;;;;;;9.27;1.42;;;;;;;9.03;100.00;93789.56;2123907;27;20019;-81
2021/09/28 04:20:24;;;;;;;2.53;1.58;;;;;;;9.15;100.00;93787.63;2103712;28;20020;-81
2021/09/28 04:21:27;;;;;;;3.75;1.25;;;;;;;8.92;100.00;93796.88;2090401;28;20103;-81
2021/09/28 04:22:28;;;;;;;4.72;1.45;;;;;;;8.88;100.00;93796.13;2098789;28;20020;-81
2021/09/28 04:23:29;;;;;;;2.50;1.30;;;;;;;8.82;100.00;93803.00;2106756;28;20051;-82
2021/09/28 04:24:30;;;;;;;4.43;1.20;;;;;;;8.83;100.00;93804.53;2106778;28;20020;-81
2021/09/28 04:25:31;;;;;;;2.90;1.20;;;;;;;8.70;100.00;93806.13;2106860;28;20048;-82
2021/09/28 04:26:34;;;;;;;2.50;1.13;;;;;;;8.71;100.00;93805.72;2098590;28;20024;-82
2021/09/28 04:27:36;;;;;;;2.88;1.40;;;;;;;8.71;100.00;93810.28;2098474;28;20078;-82
2021/09/28 04:28:38;;;;;;;11.15;1.30;;;;;;;8.64;100.00;93810.31;2109977;27;20069;-81
2021/09/28 04:29:39;;;;;;;4.53;1.40;;;;;;;8.48;100.00;93808.09;2106781;28;20031;-80
2021/09/28 04:30:40;;;;;;;6.40;1.33;;;;;;;8.51;100.00;93813.38;2105857;28;20024;-82
2021/09/28 04:31:41;;;;;;;2.03;1.05;;;;;;;8.58;100.00;93808.03;2098301;28;20513;-80
2021/09/28 04:32:42;;;;;;;2.05;1.30;;;;;;;8.50;100.00;93811.88;2106708;28;20032;-81
2021/09/28 04:33:43;;;;;;;4.90;1.35;;;;;;;8.58;100.00;93800.03;2115156;28;20016;-81
2021/09/28 04:34:44;;;;;;;2.88;1.13;;;;;;;8.65;100.00;93811.81;2115402;28;20073;-82
2021/09/28 04:35:45;;;;;;;1.80;1.13;;;;;;;8.64;100.00;93808.41;2115294;28;20031;-80
2021/09/28 04:36:46;;;;;;;2.53;1.00;;;;;;;8.63;100.00;93809.53;2100111;28;20461;-81
2021/09/28 04:37:47;;;;;;;2.72;1.20;;;;;;;8.62;100.00;93810.69;2113672;28;20024;-81
2021/09/28 04:39:03;;;;;;;2.65;1.30;;;;;;;8.58;100.00;93810.69;2098354;28;20033;-80
2021/09/28 04:40:05;;;;;;;2.78;1.48;;;;;;;8.42;100.00;93807.69;2100525;28;20082;-81
2021/09/28 04:41:06;;;;;;;1.98;1.20;;;;;;;8.48;100.00;93803.50;2090023;28;20406;-81
2021/09/28 04:42:07;;;;;;;2.92;1.20;;;;;;;8.41;100.00;93800.09;2090061;28;20029;-82
2021/09/28 04:43:08;;;;;;;3.08;1.50;;;;;;;8.40;100.00;93807.34;2100519;28;20512;-81
2021/09/28 04:44:09;;;;;;;5.70;1.30;;;;;;;8.32;100.00;93795.13;2112977;28;20032;-80
2021/09/28 04:45:10;;;;;;;4.22;1.30;;;;;;;8.32;100.00;93797.81;2119860;27;20020;-81
2021/09/28 04:46:11;;;;;;;4.13;1.40;;;;;;;8.38;100.00;93798.94;2120424;27;20027;-80
2021/09/28 04:47:12;;;;;;;6.00;1.55;;;;;;;8.51;100.00;93801.97;2122511;27;20380;-80
2021/09/28 04:48:13;;;;;;;5.18;1.30;;;;;;;8.49;100.00;93796.28;2122747;27;20051;-82
2021/09/28 04:49:14;;;;;;;2.63;1.50;;;;;;;8.56;100.00;93797.03;2120664;27;20023;-81
2021/09/28 04:50:15;;;;;;;8.20;1.70;;;;;;;8.51;100.00;93789.41;2114733;28;20023;-81
2021/09/28 04:51:16;;;;;;;3.70;1.58;;;;;;;8.44;100.00;93789.44;2106232;28;20036;-80